الصفحة الرئيسية
METAR-TAF:

METAR-TAF

مطار :

إيبوه, ماليزيا

دائرة عرض: 04-34-09N, خط طول: 101-05-35E, ارتفاع: 40 متر

مراقبة الطقس الحالي

تاريخ ووقت الإصدار 20 دقيقة قبل الساعة 09:00UTC
رياح هادئة
درجة الحرارة 31°درجة مئوية
الرطوبة 71%
ضغط 1006 hPa
الرؤية 10 كم أو أكثر
غيوم متفرقة على ارتفاع 1900 قدم

METAR: WMKI 260900Z 00000KT 9999 SCT019 31/25 Q1006

زمن: 17:20 (09:20 UTC)

توقعات

تاريخ ووقت الإصدار 4ساعات و 20 دقيقة قبل الساعة 05:00UTC
التوقعات صالحة من26 الساعة 06 UTC إلى 27 الساعة 06 UTC
ريح 5 عقدة من الشمال الشرقي
الرؤية: 8000 متر
غيوم قليلة على ارتفاع 1900 قدم
مؤقت
من 26 الساعة 07 UTC إلى 26 الساعة 11 UTC
ريح 7 عقدة من الجنوب الغربي
الرؤية: 6000 متر
غيوم قليلة على ارتفاع 1700 قدم, مزنة ركامية.
عاصفة رعدية, مطر

TAF: WMKI 260500Z 2606/2706 05005KT 8000 FEW019 TEMPO 2607/2611 22007KT 6000 TSRA FEW017CB

أرصاد الطقس والتوقعات من أكثر من 4000 مطار (تقارير الطقس للمطار METAR والتنبؤ بالطقس بالمطارTAF).

المحطات المتاحة هي النقط الصفراء والحمراء على الخريطة.

حرك المؤشر فوق النقطة لمعرفة اسم المحطة.

ثم انقر لمعرفة أرصاد وتوقعات الطقس.

لتغيير الخارطة: اضغط على الأزرار الخضراء مع رمز الصليب الأسود للتكبير. على الزر الأخضر مع شرطة للتصغير، أو على الأسهم الخضراء للخرائط المجاورة.


METAR-TAF: